createdAt,value
2022-09-21T00:00:16.411Z,99.99
2022-09-21T00:05:16.232Z,99.99
2022-09-21T00:10:16.216Z,99.99
2022-09-21T00:15:16.144Z,99.99
2022-09-21T00:20:16.033Z,99.99
2022-09-21T00:25:15.981Z,99.99
2022-09-21T00:30:15.898Z,99.99
2022-09-21T00:35:15.831Z,99.99
2022-09-21T00:40:15.807Z,99.99
2022-09-21T00:45:15.790Z,99.99
2022-09-21T00:50:15.647Z,99.99
2022-09-21T00:55:15.584Z,99.99
2022-09-21T01:00:15.561Z,99.99
2022-09-21T01:05:15.611Z,99.99
2022-09-21T01:10:15.422Z,99.99
2022-09-21T01:15:15.330Z,99.99
2022-09-21T01:20:15.271Z,99.99
2022-09-21T01:25:15.195Z,99.99
2022-09-21T01:30:15.127Z,99.99
2022-09-21T01:35:15.058Z,99.99
2022-09-21T01:40:15.070Z,99.99
2022-09-21T01:45:14.923Z,99.99
2022-09-21T01:50:14.854Z,99.99
2022-09-21T01:55:14.795Z,99.99
2022-09-21T02:00:14.756Z,99.99
2022-09-21T02:05:14.687Z,99.99
2022-09-21T02:10:14.766Z,99.99
2022-09-21T02:15:14.526Z,99.99
2022-09-21T02:20:14.488Z,99.99
2022-09-21T02:25:14.404Z,99.99
2022-09-21T02:30:14.375Z,99.99
2022-09-21T02:35:14.251Z,99.99
2022-09-21T02:40:14.228Z,99.99
2022-09-21T02:45:14.138Z,99.99
2022-09-21T02:50:14.058Z,99.99
2022-09-21T02:55:13.996Z,99.99
2022-09-21T03:00:13.943Z,99.99
2022-09-21T03:05:13.880Z,99.99
2022-09-21T03:10:13.951Z,99.99
2022-09-21T03:15:13.878Z,99.99
2022-09-21T03:20:13.651Z,99.99
2022-09-21T03:25:13.608Z,99.99
2022-09-21T03:30:13.525Z,99.99
2022-09-21T03:35:13.488Z,99.99
2022-09-21T03:40:13.479Z,99.99
2022-09-21T03:45:13.346Z,99.99
2022-09-21T03:50:13.323Z,99.99
2022-09-21T03:55:13.205Z,99.99
2022-09-21T04:00:13.172Z,99.99
2022-09-21T04:05:13.047Z,99.99
2022-09-21T04:10:12.990Z,99.99
2022-09-21T04:15:12.906Z,99.99
2022-09-21T04:20:12.870Z,99.99
2022-09-21T04:25:12.830Z,99.99
2022-09-21T04:30:12.718Z,99.99
2022-09-21T04:35:12.646Z,99.99
2022-09-21T04:40:12.705Z,99.99
2022-09-21T04:45:12.541Z,99.99
2022-09-21T04:50:12.480Z,99.99
2022-09-21T04:55:12.389Z,99.99
2022-09-21T05:00:12.329Z,99.99
2022-09-21T05:05:12.266Z,99.99
2022-09-21T05:10:12.203Z,99.99
2022-09-21T05:15:12.146Z,99.99
2022-09-21T05:20:12.073Z,99.99
2022-09-21T05:25:12.012Z,99.99
2022-09-21T05:30:11.930Z,99.85
2022-09-21T05:35:11.852Z,96.83
2022-09-21T05:40:11.789Z,95.56
2022-09-21T05:45:11.702Z,94.12
2022-09-21T05:50:11.655Z,93.77
2022-09-21T05:55:11.580Z,94.24
2022-09-21T06:00:11.519Z,92.25
2022-09-21T06:05:11.453Z,91.54
2022-09-21T06:10:11.402Z,91.50
2022-09-21T06:15:11.316Z,89.47
2022-09-21T06:20:11.254Z,87.84
2022-09-21T06:25:11.174Z,89.28
2022-09-21T06:30:11.145Z,87.47
2022-09-21T06:35:11.072Z,86.71
2022-09-21T06:40:11.046Z,84.74
2022-09-21T06:45:10.928Z,84.80
2022-09-21T06:50:10.869Z,83.58
2022-09-21T06:55:10.800Z,83.17
2022-09-21T07:00:10.746Z,80.59
2022-09-21T07:05:10.703Z,82.73
2022-09-21T07:10:15.875Z,80.72
2022-09-21T07:15:11.554Z,78.85
2022-09-21T07:20:10.474Z,77.53
2022-09-21T07:25:10.421Z,76.61
2022-09-21T07:30:10.337Z,76.82
2022-09-21T07:35:10.365Z,78.62
2022-09-21T07:40:10.315Z,79.84
2022-09-21T07:45:10.243Z,79.71
2022-09-21T07:50:10.123Z,80.38
2022-09-21T07:55:10.055Z,78.38
2022-09-21T08:00:09.948Z,78.00
2022-09-21T08:05:09.872Z,76.21
2022-09-21T08:10:09.822Z,76.92
2022-09-21T08:15:25.082Z,78.62
2022-09-21T08:20:10.982Z,78.58
2022-09-21T08:25:09.715Z,75.43
2022-09-21T08:30:09.855Z,75.01
2022-09-21T08:35:09.469Z,73.05
2022-09-21T08:40:09.861Z,71.60
2022-09-21T08:45:09.446Z,73.80
2022-09-21T08:50:09.328Z,73.63
2022-09-21T08:55:10.173Z,75.08
2022-09-21T09:00:09.493Z,73.46
2022-09-21T09:05:09.503Z,72.14
2022-09-21T09:10:09.214Z,70.42
2022-09-21T09:15:09.741Z,69.14
2022-09-21T09:20:11.285Z,71.06
2022-09-21T09:25:09.628Z,70.93
2022-09-21T09:30:09.317Z,70.46
2022-09-21T09:35:09.014Z,69.38
2022-09-21T09:40:09.088Z,68.30
2022-09-21T09:45:09.487Z,68.43
2022-09-21T09:50:08.592Z,71.00
2022-09-21T09:55:08.450Z,71.37
2022-09-21T10:00:11.520Z,72.04
2022-09-21T10:05:08.271Z,67.33
2022-09-21T10:10:08.238Z,66.46
2022-09-21T10:15:08.150Z,63.62
2022-09-21T10:20:08.095Z,62.38
2022-09-21T10:25:08.014Z,61.70
2022-09-21T10:30:08.084Z,62.04
2022-09-21T10:35:07.999Z,66.05
2022-09-21T10:40:07.846Z,69.28
2022-09-21T10:45:07.794Z,67.80
2022-09-21T10:50:07.728Z,68.03
2022-09-21T10:55:07.807Z,68.77
2022-09-21T11:00:07.759Z,67.69
2022-09-21T11:05:07.905Z,67.16
2022-09-21T11:10:08.188Z,67.52
2022-09-21T11:15:07.382Z,67.86
2022-09-21T11:20:07.332Z,68.80
2022-09-21T11:25:09.366Z,67.12
2022-09-21T11:30:07.378Z,66.64
2022-09-21T11:35:07.288Z,67.18
2022-09-21T11:40:07.307Z,67.26
2022-09-21T11:45:07.096Z,65.22
2022-09-21T11:50:29.311Z,64.21
2022-09-21T11:55:08.208Z,66.16
2022-09-21T12:00:06.841Z,61.69
2022-09-21T12:05:07.089Z,63.30
2022-09-21T12:10:10.275Z,62.29
2022-09-21T12:15:07.609Z,61.95
2022-09-21T12:20:06.588Z,63.79
2022-09-21T12:25:06.442Z,64.04
2022-09-21T12:30:06.374Z,61.69
2022-09-21T12:35:06.292Z,62.77
2022-09-21T12:40:06.459Z,62.94
2022-09-21T12:45:06.164Z,61.10
2022-09-21T12:50:06.115Z,61.69
2022-09-21T12:55:06.026Z,62.93
2022-09-21T13:00:06.135Z,62.25
2022-09-21T13:05:05.907Z,63.70
2022-09-21T13:10:05.845Z,63.96
2022-09-21T13:15:05.760Z,63.16
2022-09-21T13:20:05.714Z,65.18
2022-09-21T13:25:05.647Z,64.58
2022-09-21T13:30:05.599Z,65.28
2022-09-21T13:35:05.577Z,66.46
2022-09-21T13:40:05.523Z,65.12
2022-09-21T13:45:05.372Z,63.84
2022-09-21T13:50:05.499Z,63.70
2022-09-21T13:55:05.265Z,62.16
2022-09-21T14:00:05.192Z,62.77
2022-09-21T14:05:05.274Z,63.17
2022-09-21T14:10:05.071Z,60.65
2022-09-21T14:15:04.985Z,62.45
2022-09-21T14:20:04.954Z,67.80
2022-09-21T14:25:04.839Z,70.69
2022-09-21T14:30:07.326Z,73.52
2022-09-21T14:35:04.705Z,71.50
2022-09-21T14:40:04.679Z,73.49
2022-09-21T14:45:04.574Z,76.27
2022-09-21T14:50:07.476Z,78.53
2022-09-21T14:55:04.473Z,78.13
2022-09-21T15:00:04.416Z,78.03
2022-09-21T15:05:04.534Z,79.45
2022-09-21T15:10:04.272Z,81.72
2022-09-21T15:15:04.187Z,78.57
2022-09-21T15:20:04.130Z,82.64
2022-09-21T15:25:04.136Z,83.04
2022-09-21T15:30:04.021Z,82.03
2022-09-21T15:35:03.939Z,79.18
2022-09-21T15:40:03.945Z,83.45
2022-09-21T15:45:03.820Z,84.05
2022-09-21T15:50:03.753Z,85.11
2022-09-21T15:55:03.674Z,86.98
2022-09-21T16:00:03.600Z,83.87
2022-09-21T16:05:03.553Z,83.50
2022-09-21T16:10:03.633Z,84.92
2022-09-21T16:15:04.453Z,85.88
2022-09-21T16:20:03.337Z,86.83
2022-09-21T16:25:03.540Z,88.57
2022-09-21T16:30:04.128Z,90.14
2022-09-21T16:35:03.164Z,90.28
2022-09-21T16:40:03.215Z,91.14
2022-09-21T16:45:03.017Z,91.49
2022-09-21T16:50:02.972Z,92.10
2022-09-21T16:55:04.223Z,93.47
2022-09-21T17:00:02.873Z,93.47
2022-09-21T17:05:02.750Z,92.35
2022-09-21T17:10:02.696Z,92.65
2022-09-21T17:15:02.887Z,93.21
2022-09-21T17:20:07.561Z,93.71
2022-09-21T17:25:05.869Z,93.76
2022-09-21T17:30:02.498Z,95.29
2022-09-21T17:35:02.533Z,96.97
2022-09-21T17:40:04.084Z,97.28
2022-09-21T17:45:02.227Z,98.10
2022-09-21T17:50:02.272Z,98.91
2022-09-21T17:55:05.742Z,98.96
2022-09-21T18:00:02.145Z,99.21
2022-09-21T18:05:01.985Z,99.99
2022-09-21T18:10:02.082Z,99.99
2022-09-21T18:15:07.493Z,99.99
2022-09-21T18:20:02.966Z,99.99
2022-09-21T18:25:01.733Z,99.99
2022-09-21T18:30:01.644Z,99.99
2022-09-21T18:35:01.628Z,99.99
2022-09-21T18:40:01.613Z,99.99
2022-09-21T18:45:01.451Z,99.99
2022-09-21T18:50:01.583Z,99.99
2022-09-21T18:55:01.499Z,99.99
2022-09-21T19:00:01.342Z,99.99
2022-09-21T19:05:10.834Z,99.99
2022-09-21T19:10:01.088Z,99.99
2022-09-21T19:15:01.036Z,99.99
2022-09-21T19:20:00.997Z,99.99
2022-09-21T19:25:00.978Z,99.99
2022-09-21T19:30:02.095Z,99.99
2022-09-21T19:35:01.795Z,99.99
2022-09-21T19:40:00.822Z,99.99
2022-09-21T19:45:01.417Z,99.99
2022-09-21T19:50:00.645Z,99.99
2022-09-21T19:55:00.486Z,99.99
2022-09-21T20:00:00.426Z,99.99
2022-09-21T20:05:00.400Z,99.99
2022-09-21T20:10:00.304Z,99.99
2022-09-21T20:15:00.294Z,99.99
2022-09-21T20:20:00.220Z,99.99
2022-09-21T20:25:00.138Z,99.99
2022-09-21T20:30:01.939Z,99.99
2022-09-21T20:35:00.105Z,99.99
2022-09-21T20:40:16.097Z,99.99
2022-09-21T20:44:59.828Z,99.99
2022-09-21T20:49:59.810Z,99.99
2022-09-21T20:54:59.742Z,99.99
2022-09-21T21:00:07.099Z,99.99
2022-09-21T21:05:21.222Z,99.99
2022-09-21T21:10:21.088Z,99.99
2022-09-21T21:15:20.559Z,99.99
2022-09-21T21:20:20.544Z,99.99
2022-09-21T21:25:00.502Z,99.99
2022-09-21T21:29:59.240Z,99.99
2022-09-21T21:34:59.343Z,99.99
2022-09-21T21:39:59.124Z,99.99
2022-09-21T21:44:59.069Z,99.99
2022-09-21T21:49:58.951Z,99.99
2022-09-21T21:54:58.878Z,99.99
2022-09-21T21:59:58.831Z,99.99
2022-09-21T22:04:58.758Z,99.99
2022-09-21T22:09:58.732Z,99.99
2022-09-21T22:14:58.654Z,99.99
2022-09-21T22:19:58.568Z,99.99
2022-09-21T22:24:58.512Z,99.99
2022-09-21T22:29:58.433Z,99.99
2022-09-21T22:34:58.364Z,99.99
2022-09-21T22:39:58.306Z,99.99
2022-09-21T22:44:58.243Z,99.99
2022-09-21T22:49:58.165Z,99.99
2022-09-21T22:54:58.090Z,99.99
2022-09-21T22:59:58.021Z,99.99
2022-09-21T23:04:57.949Z,99.99
2022-09-21T23:09:57.886Z,99.99
2022-09-21T23:14:57.826Z,99.99
2022-09-21T23:19:57.768Z,99.99
2022-09-21T23:24:57.692Z,99.99
2022-09-21T23:29:57.700Z,99.99
2022-09-21T23:34:57.552Z,99.99
2022-09-21T23:39:57.495Z,99.99
2022-09-21T23:44:57.486Z,99.99
2022-09-21T23:49:57.386Z,99.99
2022-09-21T23:54:57.303Z,99.99
2022-09-21T23:59:57.237Z,99.99
